Time;durP1;ratioP1;P1;durP2;ratioP2;P2;SDS_P1;SDS_P2;PMS_P1;PMS_P2;Temp;Humidity;BMP_temperature;BMP_pressure;BME280_temperature;BME280_humidity;BME280_pressure;Samples;Min_cycle;Max_cycle;Signal;HPM_P1;HPM_P2
2023/12/16 00:00:24;;;;;;;67.88;25.58;;;;;;;;;;1047760;28;20044;-66
2023/12/16 00:01:15;;;;;;;71.72;25.95;;;;;;;;;;1043869;28;20075;-66
2023/12/16 00:01:46;;;;;;;59.08;25.52;;;;;;;;;;1049635;28;20064;-67
2023/12/16 00:02:16;;;;;;;56.55;22.05;;;;;;;;;;1052822;28;20039;-66
2023/12/16 00:02:47;;;;;;;59.70;26.08;;;;;;;;;;1051983;28;20046;-67
2023/12/16 00:03:17;;;;;;;61.58;25.13;;;;;;;;;;1054927;28;20535;-67
2023/12/16 00:03:48;;;;;;;66.63;25.65;;;;;;;;;;1050377;28;20052;-66
2023/12/16 00:04:18;;;;;;;61.78;25.48;;;;;;;;;;1050477;28;20036;-66
2023/12/16 00:04:49;;;;;;;61.17;25.40;;;;;;;;;;1048515;28;20093;-67
2023/12/16 00:05:20;;;;;;;66.38;25.23;;;;;;;;;;1047355;28;20094;-68
2023/12/16 00:05:52;;;;;;;67.95;26.20;;;;;;;;;;1049434;28;20555;-66
2023/12/16 00:06:23;;;;;;;64.45;25.65;;;;;;;;;;1049251;28;20492;-66
2023/12/16 00:06:53;;;;;;;67.70;26.02;;;;;;;;;;1047122;28;20069;-66
2023/12/16 00:07:24;;;;;;;61.83;27.20;;;;;;;;;;1050137;28;20109;-67
2023/12/16 00:07:55;;;;;;;64.78;26.27;;;;;;;;;;1048956;28;20042;-66
2023/12/16 00:08:25;;;;;;;68.78;26.67;;;;;;;;;;1050294;28;20048;-65
2023/12/16 00:08:56;;;;;;;75.95;27.55;;;;;;;;;;1049053;28;20052;-66
2023/12/16 00:09:27;;;;;;;61.88;23.00;;;;;;;;;;1050272;28;20652;-66
2023/12/16 00:09:57;;;;;;;74.30;29.77;;;;;;;;;;1050612;28;20055;-67
2023/12/16 00:10:28;;;;;;;74.82;27.50;;;;;;;;;;1050616;28;20070;-67
2023/12/16 00:10:58;;;;;;;74.10;25.20;;;;;;;;;;1048989;28;20069;-67
2023/12/16 00:11:29;;;;;;;67.25;24.85;;;;;;;;;;1051045;28;20187;-66
2023/12/16 00:11:59;;;;;;;74.65;27.50;;;;;;;;;;1049467;28;20553;-66
2023/12/16 00:12:30;;;;;;;49.60;20.83;;;;;;;;;;1050545;28;20181;-66
2023/12/16 00:13:00;;;;;;;48.20;21.52;;;;;;;;;;1049422;28;20052;-66
2023/12/16 00:13:31;;;;;;;61.35;24.33;;;;;;;;;;1050548;28;20043;-66
2023/12/16 00:14:02;;;;;;;69.35;26.08;;;;;;;;;;1048771;28;20499;-67
2023/12/16 00:14:36;;;;;;;70.25;26.25;;;;;;;;;;1050385;28;20071;-67
2023/12/16 00:15:09;;;;;;;84.95;26.45;;;;;;;;;;1049792;28;20101;-66
2023/12/16 00:15:39;;;;;;;36.40;18.55;;;;;;;;;;1050863;28;20060;-65
2023/12/16 00:16:10;;;;;;;70.43;26.73;;;;;;;;;;1044601;28;20139;-67
2023/12/16 00:16:44;;;;;;;53.33;21.55;;;;;;;;;;1046610;28;20126;-67
2023/12/16 00:17:15;;;;;;;60.72;22.52;;;;;;;;;;1046448;28;20848;-66
2023/12/16 00:17:46;;;;;;;69.93;26.77;;;;;;;;;;1047399;28;20445;-66
2023/12/16 00:18:16;;;;;;;66.50;26.00;;;;;;;;;;1050735;28;20059;-66
2023/12/16 00:18:47;;;;;;;70.55;27.60;;;;;;;;;;1049458;28;20464;-66
2023/12/16 00:19:17;;;;;;;60.63;23.95;;;;;;;;;;1049119;28;20488;-67
2023/12/16 00:19:48;;;;;;;64.72;24.00;;;;;;;;;;1047726;28;20059;-66
2023/12/16 00:20:18;;;;;;;59.88;23.88;;;;;;;;;;1046122;28;20476;-66
2023/12/16 00:20:49;;;;;;;65.10;25.08;;;;;;;;;;1045159;28;20052;-66
2023/12/16 00:21:20;;;;;;;62.67;24.48;;;;;;;;;;1044972;28;20044;-66
2023/12/16 00:21:50;;;;;;;62.88;25.02;;;;;;;;;;1046175;28;20487;-66
2023/12/16 00:22:21;;;;;;;57.05;22.88;;;;;;;;;;1047173;28;20090;-66
2023/12/16 00:22:52;;;;;;;66.38;26.02;;;;;;;;;;1044497;28;20079;-66
2023/12/16 00:23:23;;;;;;;69.80;26.92;;;;;;;;;;1043075;28;22095;-67
2023/12/16 00:23:53;;;;;;;75.10;26.38;;;;;;;;;;1043714;28;20497;-66
2023/12/16 00:24:24;;;;;;;60.15;24.73;;;;;;;;;;1046258;28;20094;-66
2023/12/16 00:24:55;;;;;;;62.13;26.13;;;;;;;;;;1044419;28;20050;-66
2023/12/16 00:25:26;;;;;;;65.53;24.90;;;;;;;;;;1046759;28;20115;-66
2023/12/16 00:25:57;;;;;;;69.00;25.38;;;;;;;;;;1045874;28;20067;-66
2023/12/16 00:26:27;;;;;;;63.13;26.27;;;;;;;;;;1044596;28;20070;-66
2023/12/16 00:26:58;;;;;;;63.17;25.42;;;;;;;;;;1044777;28;20481;-66
2023/12/16 00:27:28;;;;;;;66.60;25.52;;;;;;;;;;1044454;28;20105;-66
2023/12/16 00:27:59;;;;;;;58.47;25.02;;;;;;;;;;1045227;28;20676;-66
2023/12/16 00:28:29;;;;;;;68.57;26.10;;;;;;;;;;1045116;28;20413;-66
2023/12/16 00:29:00;;;;;;;60.42;25.73;;;;;;;;;;1046767;28;20932;-66
2023/12/16 00:29:31;;;;;;;65.28;26.20;;;;;;;;;;1044130;28;20055;-66
2023/12/16 00:30:02;;;;;;;68.32;27.38;;;;;;;;;;1048035;28;20059;-67
2023/12/16 00:30:32;;;;;;;76.43;27.52;;;;;;;;;;1045586;28;20101;-66
2023/12/16 00:31:03;;;;;;;57.58;22.48;;;;;;;;;;1045410;28;20106;-66
2023/12/16 00:31:34;;;;;;;60.17;24.35;;;;;;;;;;1045722;28;20052;-66
2023/12/16 00:32:05;;;;;;;77.85;26.88;;;;;;;;;;1044586;28;20048;-66
2023/12/16 00:32:39;;;;;;;70.43;26.10;;;;;;;;;;1045842;28;20047;-66
2023/12/16 00:33:09;;;;;;;54.05;22.85;;;;;;;;;;1044891;28;20049;-66
2023/12/16 00:33:40;;;;;;;70.22;24.77;;;;;;;;;;1046663;28;20060;-66
2023/12/16 00:34:10;;;;;;;53.10;23.30;;;;;;;;;;1048878;28;20055;-66
2023/12/16 00:34:41;;;;;;;64.90;25.35;;;;;;;;;;1045665;28;20056;-66
2023/12/16 00:35:11;;;;;;;64.20;26.38;;;;;;;;;;1045051;28;20064;-67
2023/12/16 00:35:42;;;;;;;49.95;21.33;;;;;;;;;;1046596;28;20048;-67
2023/12/16 00:36:12;;;;;;;65.97;23.77;;;;;;;;;;1045529;28;20040;-66
2023/12/16 00:36:43;;;;;;;67.40;26.35;;;;;;;;;;1045716;28;20440;-66
2023/12/16 00:37:14;;;;;;;72.63;25.23;;;;;;;;;;1045558;28;20449;-66
2023/12/16 00:37:44;;;;;;;60.45;22.52;;;;;;;;;;1045976;28;20071;-66
2023/12/16 00:38:15;;;;;;;73.10;25.00;;;;;;;;;;1049693;28;20047;-66
2023/12/16 00:38:45;;;;;;;68.70;24.55;;;;;;;;;;1046474;28;20055;-66
2023/12/16 00:39:16;;;;;;;66.65;24.45;;;;;;;;;;1048615;28;20044;-66
2023/12/16 00:39:46;;;;;;;65.10;25.63;;;;;;;;;;1046382;28;20137;-67
2023/12/16 00:40:17;;;;;;;58.72;23.30;;;;;;;;;;1050280;28;20072;-66
2023/12/16 00:40:48;;;;;;;55.05;24.35;;;;;;;;;;1048913;28;20468;-66
2023/12/16 00:41:18;;;;;;;65.22;24.80;;;;;;;;;;1046977;28;20055;-66
2023/12/16 00:41:50;;;;;;;65.97;25.33;;;;;;;;;;1047900;28;20059;-66
2023/12/16 00:42:20;;;;;;;63.33;24.88;;;;;;;;;;1045264;28;20135;-66
2023/12/16 00:42:51;;;;;;;66.40;26.35;;;;;;;;;;1044299;28;20037;-66
2023/12/16 00:43:21;;;;;;;67.13;24.23;;;;;;;;;;1044726;28;20679;-67
2023/12/16 00:43:52;;;;;;;70.93;24.83;;;;;;;;;;1043069;28;20500;-66
2023/12/16 00:44:23;;;;;;;62.85;25.02;;;;;;;;;;1046130;28;20119;-67
2023/12/16 00:44:54;;;;;;;63.28;24.23;;;;;;;;;;1043944;28;23237;-66
2023/12/16 00:45:24;;;;;;;65.22;25.55;;;;;;;;;;1043253;28;20043;-67
2023/12/16 00:45:55;;;;;;;64.28;23.02;;;;;;;;;;1044302;28;20186;-66
2023/12/16 00:46:25;;;;;;;70.85;25.00;;;;;;;;;;1043904;28;20647;-66
2023/12/16 00:46:56;;;;;;;57.88;22.60;;;;;;;;;;1042574;28;20087;-67
2023/12/16 00:47:26;;;;;;;68.47;23.65;;;;;;;;;;1044044;28;20198;-66
2023/12/16 00:47:57;;;;;;;61.45;24.63;;;;;;;;;;1042506;28;20613;-66
2023/12/16 00:48:28;;;;;;;55.25;21.88;;;;;;;;;;1042848;28;20037;-66
2023/12/16 00:48:59;;;;;;;61.13;22.98;;;;;;;;;;1044437;28;20040;-67
2023/12/16 00:49:29;;;;;;;64.90;22.08;;;;;;;;;;1044157;28;20295;-66
2023/12/16 00:50:00;;;;;;;59.53;22.75;;;;;;;;;;1044797;28;20094;-66
2023/12/16 00:50:31;;;;;;;69.68;24.48;;;;;;;;;;1042903;28;20047;-66
2023/12/16 00:51:02;;;;;;;64.70;23.08;;;;;;;;;;1044467;28;20060;-66
2023/12/16 00:51:32;;;;;;;75.07;24.60;;;;;;;;;;1044412;28;20159;-66
2023/12/16 00:52:04;;;;;;;53.97;21.63;;;;;;;;;;1041791;28;20100;-66
2023/12/16 00:52:34;;;;;;;65.10;24.77;;;;;;;;;;1043506;28;20056;-66
2023/12/16 00:53:05;;;;;;;77.63;25.40;;;;;;;;;;1042360;28;20596;-66
2023/12/16 00:53:35;;;;;;;78.00;26.13;;;;;;;;;;1043984;28;20470;-66
2023/12/16 00:54:06;;;;;;;70.00;25.90;;;;;;;;;;1041829;28;20099;-66
2023/12/16 00:54:36;;;;;;;60.58;22.48;;;;;;;;;;1042307;28;20053;-65
2023/12/16 00:55:07;;;;;;;74.07;25.13;;;;;;;;;;1044828;28;20064;-66
2023/12/16 00:55:40;;;;;;;60.08;21.40;;;;;;;;;;1042569;28;20052;-66
2023/12/16 00:56:11;;;;;;;78.22;27.30;;;;;;;;;;1049369;28;20430;-66
2023/12/16 00:56:42;;;;;;;78.15;27.23;;;;;;;;;;1049925;28;20488;-66
2023/12/16 00:57:12;;;;;;;70.25;25.52;;;;;;;;;;1050575;28;20047;-66
2023/12/16 00:57:43;;;;;;;75.65;26.73;;;;;;;;;;1049809;28;20052;-67
2023/12/16 00:58:13;;;;;;;79.05;25.25;;;;;;;;;;1047110;28;20075;-66
2023/12/16 00:58:44;;;;;;;67.75;25.45;;;;;;;;;;1044557;28;20037;-66
2023/12/16 00:59:14;;;;;;;74.60;25.75;;;;;;;;;;1045256;28;20052;-66
2023/12/16 00:59:45;;;;;;;74.25;24.40;;;;;;;;;;1047291;28;20435;-66
2023/12/16 01:00:16;;;;;;;54.90;21.00;;;;;;;;;;1048937;28;20131;-66
2023/12/16 01:00:46;;;;;;;64.20;22.88;;;;;;;;;;1046739;28;20056;-65
2023/12/16 01:01:17;;;;;;;64.32;23.92;;;;;;;;;;1047067;28;20648;-66
2023/12/16 01:01:47;;;;;;;66.78;24.15;;;;;;;;;;1050458;28;20529;-65
2023/12/16 01:02:18;;;;;;;65.10;23.73;;;;;;;;;;1049586;28;20052;-66
2023/12/16 01:02:48;;;;;;;57.75;22.83;;;;;;;;;;1050625;28;20047;-66
2023/12/16 01:03:19;;;;;;;63.50;24.40;;;;;;;;;;1050605;28;20438;-66
2023/12/16 01:03:50;;;;;;;60.95;22.58;;;;;;;;;;1050057;28;20070;-66
2023/12/16 01:04:20;;;;;;;70.22;23.50;;;;;;;;;;1049080;28;20064;-66
2023/12/16 01:04:52;;;;;;;70.82;25.45;;;;;;;;;;1049798;28;20047;-66
2023/12/16 01:05:22;;;;;;;76.97;26.88;;;;;;;;;;1048487;28;20617;-66
2023/12/16 01:05:53;;;;;;;64.40;24.48;;;;;;;;;;1049785;28;20537;-66
2023/12/16 01:06:24;;;;;;;64.50;22.50;;;;;;;;;;1050661;28;20160;-66
2023/12/16 01:06:54;;;;;;;61.35;23.13;;;;;;;;;;1049817;28;20040;-66
2023/12/16 01:07:25;;;;;;;65.00;24.23;;;;;;;;;;1051033;28;20059;-66
2023/12/16 01:07:55;;;;;;;72.57;24.63;;;;;;;;;;1048331;28;20517;-66
2023/12/16 01:08:26;;;;;;;62.70;22.05;;;;;;;;;;1049895;28;20411;-66
2023/12/16 01:08:56;;;;;;;70.00;25.58;;;;;;;;;;1048504;28;20135;-66
2023/12/16 01:09:27;;;;;;;67.25;24.15;;;;;;;;;;1049385;28;20052;-66
2023/12/16 01:09:57;;;;;;;74.40;25.10;;;;;;;;;;1049500;28;20044;-66
2023/12/16 01:10:28;;;;;;;64.85;25.23;;;;;;;;;;1049430;28;20044;-66
2023/12/16 01:10:59;;;;;;;70.95;25.52;;;;;;;;;;1049082;28;20052;-66
2023/12/16 01:11:30;;;;;;;64.43;24.45;;;;;;;;;;1048932;28;20040;-66
2023/12/16 01:12:00;;;;;;;59.30;22.48;;;;;;;;;;1047899;28;20044;-66
2023/12/16 01:12:31;;;;;;;72.93;26.48;;;;;;;;;;1047381;28;20036;-66
2023/12/16 01:13:01;;;;;;;61.28;21.88;;;;;;;;;;1050081;28;20102;-67
2023/12/16 01:13:32;;;;;;;68.90;26.63;;;;;;;;;;1050729;28;20075;-65
2023/12/16 01:14:02;;;;;;;66.50;24.80;;;;;;;;;;1050186;28;20392;-66
2023/12/16 01:14:33;;;;;;;72.65;23.65;;;;;;;;;;1047692;28;20101;-66
2023/12/16 01:15:04;;;;;;;78.32;24.90;;;;;;;;;;1050184;28;20055;-66
2023/12/16 01:15:36;;;;;;;67.82;23.65;;;;;;;;;;1050731;28;20044;-66
2023/12/16 01:16:07;;;;;;;70.65;25.58;;;;;;;;;;1048072;28;20109;-66
2023/12/16 01:16:37;;;;;;;68.47;24.38;;;;;;;;;;1048942;28;20110;-65
2023/12/16 01:17:08;;;;;;;65.97;24.20;;;;;;;;;;1048557;28;20059;-66
2023/12/16 01:17:38;;;;;;;73.25;23.98;;;;;;;;;;1050607;28;20126;-66
2023/12/16 01:18:09;;;;;;;72.97;25.33;;;;;;;;;;1050588;28;20093;-66
2023/12/16 01:18:40;;;;;;;74.32;28.02;;;;;;;;;;1048059;28;20516;-66
2023/12/16 01:19:10;;;;;;;76.80;27.42;;;;;;;;;;1049796;28;20044;-66
2023/12/16 01:19:41;;;;;;;76.53;27.60;;;;;;;;;;1050428;28;20713;-65
2023/12/16 01:20:11;;;;;;;71.10;25.63;;;;;;;;;;1049768;28;20048;-66
2023/12/16 01:20:42;;;;;;;64.97;22.95;;;;;;;;;;1048365;28;20063;-66
2023/12/16 01:21:12;;;;;;;55.75;22.55;;;;;;;;;;1049780;28;20039;-67
2023/12/16 01:21:43;;;;;;;77.38;26.52;;;;;;;;;;1048772;28;20056;-66
2023/12/16 01:22:14;;;;;;;68.63;24.60;;;;;;;;;;1049914;28;20051;-66
2023/12/16 01:22:44;;;;;;;73.05;25.23;;;;;;;;;;1049881;28;20048;-66
2023/12/16 01:23:15;;;;;;;74.22;25.73;;;;;;;;;;1050697;28;20032;-65
2023/12/16 01:23:46;;;;;;;67.30;25.70;;;;;;;;;;1049192;28;20143;-66
2023/12/16 01:24:16;;;;;;;68.80;24.80;;;;;;;;;;1049749;28;20145;-67
2023/12/16 01:24:47;;;;;;;69.38;22.95;;;;;;;;;;1050308;28;20086;-65
2023/12/16 01:25:17;;;;;;;79.80;26.52;;;;;;;;;;1050307;28;20097;-66
2023/12/16 01:25:48;;;;;;;72.60;25.45;;;;;;;;;;1050605;28;20044;-66
2023/12/16 01:26:18;;;;;;;69.88;25.60;;;;;;;;;;1049795;28;20558;-66
2023/12/16 01:26:49;;;;;;;74.32;25.02;;;;;;;;;;1049731;28;20491;-66
2023/12/16 01:27:20;;;;;;;72.13;26.48;;;;;;;;;;1049816;28;20036;-66
2023/12/16 01:27:50;;;;;;;76.85;26.75;;;;;;;;;;1048151;28;20103;-66
2023/12/16 01:28:21;;;;;;;72.65;26.17;;;;;;;;;;1050521;28;20071;-65
2023/12/16 01:28:51;;;;;;;80.85;26.85;;;;;;;;;;1047276;28;20503;-66
2023/12/16 01:29:22;;;;;;;66.22;24.63;;;;;;;;;;1049672;28;20406;-65
2023/12/16 01:29:52;;;;;;;69.18;24.00;;;;;;;;;;1050621;28;20066;-66
2023/12/16 01:30:24;;;;;;;66.78;24.65;;;;;;;;;;1049708;28;20465;-66
2023/12/16 01:30:55;;;;;;;78.47;26.70;;;;;;;;;;1048973;28;20032;-65
2023/12/16 01:31:25;;;;;;;71.50;26.15;;;;;;;;;;1050203;28;20036;-66
2023/12/16 01:31:56;;;;;;;79.88;27.50;;;;;;;;;;1048719;28;20048;-66
2023/12/16 01:32:26;;;;;;;79.10;26.35;;;;;;;;;;1050315;28;20044;-66
2023/12/16 01:32:57;;;;;;;81.07;26.60;;;;;;;;;;1048446;28;20052;-66
2023/12/16 01:33:28;;;;;;;72.78;24.50;;;;;;;;;;1050573;28;20044;-65
2023/12/16 01:33:58;;;;;;;67.78;24.73;;;;;;;;;;1048932;28;20044;-65
2023/12/16 01:34:29;;;;;;;76.20;25.98;;;;;;;;;;1050920;28;20052;-66
2023/12/16 01:34:59;;;;;;;82.55;26.30;;;;;;;;;;1048559;28;20076;-66
2023/12/16 01:35:30;;;;;;;76.10;26.20;;;;;;;;;;1050500;28;20050;-67
2023/12/16 01:36:01;;;;;;;85.97;27.73;;;;;;;;;;1048643;28;20058;-66
2023/12/16 01:36:32;;;;;;;67.30;23.23;;;;;;;;;;1048631;28;20048;-65
2023/12/16 01:37:02;;;;;;;83.38;26.38;;;;;;;;;;1049763;28;20052;-66
2023/12/16 01:37:33;;;;;;;81.15;27.92;;;;;;;;;;1049357;28;20131;-66
2023/12/16 01:38:03;;;;;;;92.45;30.17;;;;;;;;;;1048158;28;20056;-66
2023/12/16 01:38:34;;;;;;;75.70;25.25;;;;;;;;;;1050592;28;20051;-65
2023/12/16 01:39:04;;;;;;;88.50;27.83;;;;;;;;;;1048343;28;20519;-67
2023/12/16 01:39:35;;;;;;;73.82;25.38;;;;;;;;;;1050816;28;20054;-66
2023/12/16 01:40:06;;;;;;;74.85;25.88;;;;;;;;;;1049788;28;20047;-66
2023/12/16 01:40:37;;;;;;;78.18;26.00;;;;;;;;;;1050459;28;20508;-66
2023/12/16 01:41:07;;;;;;;79.40;27.40;;;;;;;;;;1046067;28;20577;-67
2023/12/16 01:41:38;;;;;;;78.60;28.10;;;;;;;;;;1048858;28;20983;-66
2023/12/16 01:42:08;;;;;;;68.82;24.75;;;;;;;;;;1049474;28;20059;-66
2023/12/16 01:42:39;;;;;;;81.95;25.83;;;;;;;;;;1047787;28;20143;-66
2023/12/16 01:43:10;;;;;;;82.90;25.95;;;;;;;;;;1045534;28;20135;-66
2023/12/16 01:43:41;;;;;;;80.05;25.85;;;;;;;;;;1045354;28;20055;-66
2023/12/16 01:44:11;;;;;;;68.15;23.60;;;;;;;;;;1046180;28;20403;-66
2023/12/16 01:44:42;;;;;;;72.72;26.77;;;;;;;;;;1045658;28;20139;-66
2023/12/16 01:45:15;;;;;;;76.25;26.20;;;;;;;;;;1045489;28;20052;-66
2023/12/16 01:45:47;;;;;;;72.45;25.15;;;;;;;;;;1044601;28;20094;-66
2023/12/16 01:46:19;;;;;;;73.30;25.77;;;;;;;;;;1043317;28;20158;-66
2023/12/16 01:46:51;;;;;;;61.92;24.15;;;;;;;;;;1041990;28;20045;-66
2023/12/16 01:47:22;;;;;;;78.15;23.90;;;;;;;;;;1045997;28;20503;-66
2023/12/16 01:47:52;;;;;;;80.20;25.05;;;;;;;;;;1046219;28;20040;-65
2023/12/16 01:48:23;;;;;;;72.32;24.30;;;;;;;;;;1042341;28;20060;-66
2023/12/16 01:48:54;;;;;;;72.57;24.17;;;;;;;;;;1046610;28;20049;-66
2023/12/16 01:49:25;;;;;;;73.38;24.42;;;;;;;;;;1051007;28;20040;-65
2023/12/16 01:49:57;;;;;;;73.75;25.50;;;;;;;;;;1047842;28;20048;-66
2023/12/16 01:50:27;;;;;;;67.18;22.85;;;;;;;;;;1049334;28;20045;-65
2023/12/16 01:51:00;;;;;;;74.85;25.38;;;;;;;;;;1049106;28;20044;-67
2023/12/16 01:51:31;;;;;;;71.65;24.88;;;;;;;;;;1048919;28;20059;-66
2023/12/16 01:52:01;;;;;;;79.85;27.10;;;;;;;;;;1049075;28;20048;-66
2023/12/16 01:52:33;;;;;;;71.63;25.13;;;;;;;;;;1050555;28;20055;-66
2023/12/16 01:53:04;;;;;;;82.47;25.55;;;;;;;;;;1049719;28;20157;-66
2023/12/16 01:53:35;;;;;;;73.70;24.67;;;;;;;;;;1049689;28;20048;-66
2023/12/16 01:54:08;;;;;;;81.63;27.10;;;;;;;;;;1049706;28;20142;-66
2023/12/16 01:54:39;;;;;;;65.43;23.60;;;;;;;;;;1049833;28;20042;-65
2023/12/16 01:55:10;;;;;;;69.57;24.05;;;;;;;;;;1049554;28;20047;-67
2023/12/16 01:55:40;;;;;;;67.38;24.85;;;;;;;;;;1050589;28;20595;-66
2023/12/16 01:56:11;;;;;;;54.78;20.08;;;;;;;;;;1050667;28;20048;-67
2023/12/16 01:56:42;;;;;;;67.38;23.23;;;;;;;;;;1049637;28;20439;-65
2023/12/16 01:57:13;;;;;;;79.00;26.55;;;;;;;;;;1049259;28;20688;-67
2023/12/16 01:57:44;;;;;;;75.22;25.40;;;;;;;;;;1049539;28;20440;-66
2023/12/16 01:58:15;;;;;;;58.22;20.45;;;;;;;;;;1049175;28;20155;-66
2023/12/16 01:58:48;;;;;;;85.05;26.10;;;;;;;;;;1048982;28;20105;-66
2023/12/16 01:59:19;;;;;;;75.43;24.65;;;;;;;;;;1049559;28;20048;-66
2023/12/16 01:59:50;;;;;;;83.78;25.15;;;;;;;;;;1049479;28;20083;-65
2023/12/16 02:00:21;;;;;;;81.15;27.13;;;;;;;;;;1049736;28;20135;-67
2023/12/16 02:00:52;;;;;;;76.82;27.30;;;;;;;;;;1049646;28;20097;-66
2023/12/16 02:01:23;;;;;;;77.95;25.30;;;;;;;;;;1050480;28;20101;-66
2023/12/16 02:01:54;;;;;;;82.38;25.42;;;;;;;;;;1049152;28;20645;-67
2023/12/16 02:02:26;;;;;;;72.72;22.60;;;;;;;;;;1050500;28;20047;-67
2023/12/16 02:02:57;;;;;;;72.85;25.35;;;;;;;;;;1049934;28;20472;-66
2023/12/16 02:03:28;;;;;;;78.07;24.83;;;;;;;;;;1049541;28;20520;-66
2023/12/16 02:03:59;;;;;;;79.97;25.83;;;;;;;;;;1050569;28;20690;-66
2023/12/16 02:04:30;;;;;;;66.78;23.05;;;;;;;;;;1048637;28;20054;-66
2023/12/16 02:05:01;;;;;;;70.18;24.85;;;;;;;;;;1049184;28;20051;-66
2023/12/16 02:05:31;;;;;;;76.00;25.65;;;;;;;;;;1050197;28;20048;-65
2023/12/16 02:06:03;;;;;;;69.63;25.52;;;;;;;;;;1046900;28;20048;-65
2023/12/16 02:06:34;;;;;;;60.75;23.60;;;;;;;;;;1048659;28;20480;-67
2023/12/16 02:07:05;;;;;;;82.63;25.83;;;;;;;;;;1049590;28;20539;-66
2023/12/16 02:07:35;;;;;;;71.53;24.73;;;;;;;;;;1050793;28;20161;-66
2023/12/16 02:08:06;;;;;;;82.00;26.67;;;;;;;;;;1049093;28;20559;-65
2023/12/16 02:08:36;;;;;;;63.10;22.05;;;;;;;;;;1049469;28;20052;-68
2023/12/16 02:09:07;;;;;;;69.65;23.88;;;;;;;;;;1049863;28;20044;-67
2023/12/16 02:09:38;;;;;;;68.40;26.05;;;;;;;;;;1050407;28;20460;-66
2023/12/16 02:10:09;;;;;;;83.90;26.27;;;;;;;;;;1049345;28;20757;-66
2023/12/16 02:10:39;;;;;;;80.18;24.70;;;;;;;;;;1050239;28;20075;-64
2023/12/16 02:11:12;;;;;;;73.85;24.90;;;;;;;;;;1050603;28;20754;-67
2023/12/16 02:11:42;;;;;;;69.75;23.38;;;;;;;;;;1048973;28;20048;-66
2023/12/16 02:12:13;;;;;;;72.50;23.05;;;;;;;;;;1049875;28;20072;-66
2023/12/16 02:12:44;;;;;;;83.65;26.10;;;;;;;;;;1050001;28;20087;-65
2023/12/16 02:13:14;;;;;;;75.25;24.77;;;;;;;;;;1050816;28;20655;-66
2023/12/16 02:13:45;;;;;;;80.63;25.92;;;;;;;;;;1047925;28;20398;-66
2023/12/16 02:14:16;;;;;;;61.20;23.50;;;;;;;;;;1051071;28;20056;-66
2023/12/16 02:14:46;;;;;;;72.95;26.05;;;;;;;;;;1048559;28;20155;-66
2023/12/16 02:15:17;;;;;;;82.00;26.83;;;;;;;;;;1048852;28;20048;-67
2023/12/16 02:15:47;;;;;;;74.10;26.70;;;;;;;;;;1050076;28;20059;-65
2023/12/16 02:16:18;;;;;;;87.03;26.40;;;;;;;;;;1050942;28;20051;-66
2023/12/16 02:16:48;;;;;;;77.78;24.98;;;;;;;;;;1049847;28;20407;-66
2023/12/16 02:17:19;;;;;;;71.85;23.52;;;;;;;;;;1049369;28;20043;-66
2023/12/16 02:17:50;;;;;;;86.35;27.30;;;;;;;;;;1048617;28;20123;-66
2023/12/16 02:18:20;;;;;;;71.97;24.30;;;;;;;;;;1050069;28;20052;-66
2023/12/16 02:18:51;;;;;;;67.35;24.48;;;;;;;;;;1050474;28;20460;-67
2023/12/16 02:19:26;;;;;;;73.38;24.42;;;;;;;;;;1048284;28;20135;-66
2023/12/16 02:19:57;;;;;;;68.43;23.65;;;;;;;;;;1050358;28;20128;-65
2023/12/16 02:20:27;;;;;;;82.22;26.23;;;;;;;;;;1050446;28;20104;-66
2023/12/16 02:20:58;;;;;;;69.22;24.50;;;;;;;;;;1049193;28;20052;-66
2023/12/16 02:21:28;;;;;;;83.30;25.80;;;;;;;;;;1049574;28;20047;-66
2023/12/16 02:21:59;;;;;;;72.13;25.25;;;;;;;;;;1050405;28;20403;-66
2023/12/16 02:22:30;;;;;;;77.25;26.65;;;;;;;;;;1049429;28;20048;-67
2023/12/16 02:23:00;;;;;;;79.97;26.33;;;;;;;;;;1050304;28;20070;-66
2023/12/16 02:23:31;;;;;;;72.95;25.30;;;;;;;;;;1048930;28;20461;-66
2023/12/16 02:24:01;;;;;;;72.93;22.88;;;;;;;;;;1049081;28;20822;-67
2023/12/16 02:24:36;;;;;;;72.93;25.40;;;;;;;;;;1046650;28;20380;-66
2023/12/16 02:25:09;;;;;;;79.15;23.90;;;;;;;;;;1050063;28;20051;-66
2023/12/16 02:25:42;;;;;;;66.95;23.02;;;;;;;;;;1048970;28;20048;-66
2023/12/16 02:26:13;;;;;;;84.50;24.27;;;;;;;;;;1050207;28;20048;-67
2023/12/16 02:26:44;;;;;;;64.10;23.45;;;;;;;;;;1048522;28;20052;-66
2023/12/16 02:27:14;;;;;;;70.28;24.33;;;;;;;;;;1049682;28;20051;-66
2023/12/16 02:27:45;;;;;;;67.32;23.80;;;;;;;;;;1049844;28;20036;-66
2023/12/16 02:28:16;;;;;;;74.88;26.02;;;;;;;;;;1048984;28;20047;-67
2023/12/16 02:28:46;;;;;;;52.92;19.85;;;;;;;;;;1050121;28;20152;-66
2023/12/16 02:29:17;;;;;;;72.95;24.70;;;;;;;;;;1049000;28;20046;-66
2023/12/16 02:29:48;;;;;;;79.22;24.00;;;;;;;;;;1049859;28;20047;-66
2023/12/16 02:30:20;;;;;;;76.57;23.63;;;;;;;;;;1048560;28;20461;-66
2023/12/16 02:30:51;;;;;;;69.15;22.98;;;;;;;;;;1049893;28;20052;-67
2023/12/16 02:31:21;;;;;;;80.75;25.80;;;;;;;;;;1050411;28;20052;-66
2023/12/16 02:31:52;;;;;;;80.18;24.42;;;;;;;;;;1050289;28;20120;-66
2023/12/16 02:32:22;;;;;;;74.90;24.92;;;;;;;;;;1050058;28;20048;-66
2023/12/16 02:32:55;;;;;;;66.30;21.70;;;;;;;;;;1050265;28;20093;-66
2023/12/16 02:33:26;;;;;;;80.38;25.73;;;;;;;;;;1050855;28;20043;-66
2023/12/16 02:33:56;;;;;;;75.72;24.75;;;;;;;;;;1048908;28;20036;-66
2023/12/16 02:34:28;;;;;;;73.40;22.80;;;;;;;;;;1050237;28;20131;-66
2023/12/16 02:34:59;;;;;;;90.50;25.20;;;;;;;;;;1050430;28;20040;-67
2023/12/16 02:35:29;;;;;;;95.25;27.98;;;;;;;;;;1050535;28;20447;-67
2023/12/16 02:36:00;;;;;;;84.85;26.25;;;;;;;;;;1047756;28;20055;-67
2023/12/16 02:36:31;;;;;;;65.07;22.83;;;;;;;;;;1049444;28;20043;-67
2023/12/16 02:37:05;;;;;;;76.32;24.48;;;;;;;;;;1050340;28;20046;-66
2023/12/16 02:37:36;;;;;;;80.50;24.30;;;;;;;;;;1047911;28;20752;-66
2023/12/16 02:38:07;;;;;;;74.40;23.95;;;;;;;;;;1048391;28;20754;-67
2023/12/16 02:38:37;;;;;;;73.20;24.27;;;;;;;;;;1049333;28;20506;-66
2023/12/16 02:39:08;;;;;;;71.35;24.00;;;;;;;;;;1050211;28;20058;-67
2023/12/16 02:39:39;;;;;;;70.90;24.38;;;;;;;;;;1049124;28;20056;-66
2023/12/16 02:40:10;;;;;;;81.07;24.33;;;;;;;;;;1049605;28;20118;-66
2023/12/16 02:40:42;;;;;;;70.82;23.45;;;;;;;;;;1048494;28;20043;-67
2023/12/16 02:41:13;;;;;;;69.80;24.83;;;;;;;;;;1048583;28;20127;-67
2023/12/16 02:41:44;;;;;;;70.35;22.73;;;;;;;;;;1049805;28;20047;-66
2023/12/16 02:42:14;;;;;;;77.00;23.98;;;;;;;;;;1050294;28;20040;-66
2023/12/16 02:42:45;;;;;;;83.43;25.13;;;;;;;;;;1049321;28;20111;-66
2023/12/16 02:43:15;;;;;;;73.20;21.67;;;;;;;;;;1049628;28;20049;-66
2023/12/16 02:43:46;;;;;;;79.60;24.60;;;;;;;;;;1050171;28;20587;-66
2023/12/16 02:44:17;;;;;;;74.78;24.05;;;;;;;;;;1050226;28;20514;-66
2023/12/16 02:44:47;;;;;;;77.72;24.30;;;;;;;;;;1047258;28;20411;-67
2023/12/16 02:45:19;;;;;;;73.57;24.45;;;;;;;;;;1049500;28;20055;-66
2023/12/16 02:45:49;;;;;;;72.40;23.23;;;;;;;;;;1048929;28;20048;-66
2023/12/16 02:46:20;;;;;;;80.88;24.58;;;;;;;;;;1049226;28;20044;-66
2023/12/16 02:46:50;;;;;;;66.03;21.98;;;;;;;;;;1049110;28;20139;-66
2023/12/16 02:47:21;;;;;;;71.18;22.13;;;;;;;;;;1049572;28;20048;-66
2023/12/16 02:47:51;;;;;;;81.95;22.25;;;;;;;;;;1048557;28;20097;-66
2023/12/16 02:48:22;;;;;;;71.45;23.40;;;;;;;;;;1047549;28;20094;-66
2023/12/16 02:48:53;;;;;;;79.22;24.40;;;;;;;;;;1048803;28;20051;-66
2023/12/16 02:49:23;;;;;;;78.53;25.83;;;;;;;;;;1049529;28;20143;-65
2023/12/16 02:49:54;;;;;;;66.85;22.95;;;;;;;;;;1050012;28;20093;-66
2023/12/16 02:50:24;;;;;;;75.40;25.42;;;;;;;;;;1047778;28;20428;-66
2023/12/16 02:50:55;;;;;;;86.90;23.52;;;;;;;;;;1048939;28;20040;-66
2023/12/16 02:51:25;;;;;;;84.32;24.80;;;;;;;;;;1048822;28;20074;-67
2023/12/16 02:51:58;;;;;;;83.65;23.70;;;;;;;;;;1049192;28;20040;-66
2023/12/16 02:52:29;;;;;;;74.43;22.73;;;;;;;;;;1048462;28;20687;-66
2023/12/16 02:53:00;;;;;;;68.93;24.77;;;;;;;;;;1050213;28;20058;-66
2023/12/16 02:53:31;;;;;;;78.18;22.85;;;;;;;;;;1049466;28;20059;-66
2023/12/16 02:54:01;;;;;;;69.72;22.00;;;;;;;;;;1048969;28;20127;-66
2023/12/16 02:54:33;;;;;;;74.43;22.35;;;;;;;;;;1049626;28;20040;-67
2023/12/16 02:55:04;;;;;;;73.28;20.73;;;;;;;;;;1049579;28;20047;-65
2023/12/16 02:55:35;;;;;;;77.93;24.90;;;;;;;;;;1050484;28;20055;-66
2023/12/16 02:56:06;;;;;;;80.32;25.00;;;;;;;;;;1048600;28;20139;-66
2023/12/16 02:56:37;;;;;;;90.95;26.48;;;;;;;;;;1050800;28;20672;-66
2023/12/16 02:57:07;;;;;;;77.80;23.33;;;;;;;;;;1048481;28;20073;-65
2023/12/16 02:57:38;;;;;;;86.85;25.75;;;;;;;;;;1049319;28;20052;-66
2023/12/16 02:58:08;;;;;;;77.18;25.23;;;;;;;;;;1049237;28;20151;-66
2023/12/16 02:58:39;;;;;;;69.80;21.90;;;;;;;;;;1049307;28;20053;-67
2023/12/16 02:59:09;;;;;;;76.80;21.92;;;;;;;;;;1049538;28;20052;-66
2023/12/16 02:59:40;;;;;;;79.43;23.30;;;;;;;;;;1048855;28;20040;-66